Time;durP1;ratioP1;P1;durP2;ratioP2;P2;SDS_P1;SDS_P2;PMS_P1;PMS_P2;Temp;Humidity;BMP_temperature;BMP_pressure;BME280_temperature;BME280_humidity;BME280_pressure;Samples;Min_cycle;Max_cycle;Signal;HPM_P1;HPM_P2
2023/07/02 00:02:44;;;;;;;;;;;;;;;16.51;69.43848;100750.6;;;;-68
2023/07/02 00:06:41;;;;;;;0.3;0.1;;;;;;;;;;;;;-68
2023/07/02 00:07:44;;;;;;;;;;;;;;;16.47;69.26172;100753.7;;;;-68
2023/07/02 00:12:44;;;;;;;;;;;;;;;16.44;69.13281;100751.7;;;;-71
2023/07/02 00:17:46;;;;;;;;;;;;;;;16.41;69.15234;100745.8;;;;-70
2023/07/02 00:22:46;;;;;;;;;;;;;;;16.35;69.04102;100740.4;;;;-70
2023/07/02 00:27:44;;;;;;;;;;;;;;;16.29;68.87402;100743.7;;;;-68
2023/07/02 00:32:44;;;;;;;;;;;;;;;16.2;68.74805;100746.7;;;;-69
2023/07/02 00:36:43;;;;;;;0.3;0.2;;;;;;;;;;;;;-68
2023/07/02 00:37:44;;;;;;;;;;;;;;;16.1;68.6875;100735.2;;;;-68
2023/07/02 00:42:44;;;;;;;;;;;;;;;16.06;68.53418;100741.6;;;;-68
2023/07/02 00:47:44;;;;;;;;;;;;;;;15.95;68.48438;100738;;;;-69
2023/07/02 00:52:44;;;;;;;;;;;;;;;15.86;68.55957;100735.5;;;;-68
2023/07/02 00:57:46;;;;;;;;;;;;;;;15.75;68.47559;100735.1;;;;-69
2023/07/02 01:02:46;;;;;;;;;;;;;;;15.69;68.46582;100733.6;;;;-68
2023/07/02 01:06:45;;;;;;;0.2;0.1;;;;;;;;;;;;;-68
2023/07/02 01:07:44;;;;;;;;;;;;;;;15.65;68.43652;100735.5;;;;-67
2023/07/02 01:12:47;;;;;;;;;;;;;;;15.57;68.48145;100740.9;;;;-70
2023/07/02 01:17:46;;;;;;;;;;;;;;;15.48;68.625;100739;;;;-68
2023/07/02 01:22:44;;;;;;;;;;;;;;;15.42;68.56934;100749.5;;;;-70
2023/07/02 01:27:44;;;;;;;;;;;;;;;15.34;68.92871;100751.9;;;;-69
2023/07/02 01:32:44;;;;;;;;;;;;;;;15.3;68.64258;100748.4;;;;-68
2023/07/02 01:36:48;;;;;;;0.2;0.1;;;;;;;;;;;;;-68
2023/07/02 01:37:44;;;;;;;;;;;;;;;15.25;68.46484;100742.1;;;;-69
2023/07/02 01:42:46;;;;;;;;;;;;;;;15.17;68.67871;100746;;;;-68
2023/07/02 01:47:44;;;;;;;;;;;;;;;15.13;68.59277;100748.1;;;;-68
2023/07/02 01:52:44;;;;;;;;;;;;;;;15.09;68.49707;100753.2;;;;-68
2023/07/02 01:57:44;;;;;;;;;;;;;;;15.01;68.39551;100752.5;;;;-68
2023/07/02 02:02:44;;;;;;;;;;;;;;;14.97;68.45508;100749;;;;-68
2023/07/02 02:06:52;;;;;;;0.2;0.1;;;;;;;;;;;;;-69
2023/07/02 02:07:44;;;;;;;;;;;;;;;14.92;68.40234;100740.1;;;;-67
2023/07/02 02:12:44;;;;;;;;;;;;;;;14.88;68.49707;100754.7;;;;-68
2023/07/02 02:17:46;;;;;;;;;;;;;;;14.84;68.42383;100754.2;;;;-68
2023/07/02 02:22:44;;;;;;;;;;;;;;;14.79;68.39453;100754.3;;;;-67
2023/07/02 02:27:44;;;;;;;;;;;;;;;14.75;68.35449;100755.2;;;;-69
2023/07/02 02:32:44;;;;;;;;;;;;;;;14.69;68.60352;100757.7;;;;-69
2023/07/02 02:36:55;;;;;;;0.2;0.1;;;;;;;;;;;;;-68
2023/07/02 02:37:48;;;;;;;;;;;;;;;14.62;68.42383;100763.2;;;;-68
2023/07/02 02:42:44;;;;;;;;;;;;;;;14.56;68.99805;100769.3;;;;-69
2023/07/02 02:47:44;;;;;;;;;;;;;;;14.54;68.6582;100777.2;;;;-67
2023/07/02 02:52:45;;;;;;;;;;;;;;;14.5;68.7627;100776.6;;;;-69
2023/07/02 02:57:44;;;;;;;;;;;;;;;14.48;68.54688;100777.1;;;;-68
2023/07/02 03:02:44;;;;;;;;;;;;;;;14.43;68.88574;100779.9;;;;-68
2023/07/02 03:06:55;;;;;;;0.2;0.1;;;;;;;;;;;;;-70
2023/07/02 03:07:44;;;;;;;;;;;;;;;14.4;68.75977;100779.2;;;;-68
2023/07/02 03:12:44;;;;;;;;;;;;;;;14.38;68.80176;100775.9;;;;-68
2023/07/02 03:17:44;;;;;;;;;;;;;;;14.37;68.78906;100777.2;;;;-67
2023/07/02 03:22:44;;;;;;;;;;;;;;;14.34;68.6709;100781.8;;;;-68
2023/07/02 03:27:44;;;;;;;;;;;;;;;14.3;68.90039;100787.9;;;;-67
2023/07/02 03:32:44;;;;;;;;;;;;;;;14.29;68.9668;100796.1;;;;-68
2023/07/02 03:36:56;;;;;;;0.2;0.1;;;;;;;;;;;;;-69
2023/07/02 03:37:45;;;;;;;;;;;;;;;14.28;68.99707;100796.1;;;;-69
2023/07/02 03:42:44;;;;;;;;;;;;;;;14.28;68.78516;100796.9;;;;-68
2023/07/02 03:47:44;;;;;;;;;;;;;;;14.24;68.80273;100799.8;;;;-69
2023/07/02 03:52:44;;;;;;;;;;;;;;;14.24;68.98047;100804.1;;;;-69
2023/07/02 03:57:44;;;;;;;;;;;;;;;14.22;69;100810.3;;;;-68
2023/07/02 04:02:44;;;;;;;;;;;;;;;14.23;69.23633;100810.8;;;;-69
2023/07/02 04:07:00;;;;;;;0.2;0.1;;;;;;;;;;;;;-69
2023/07/02 04:07:44;;;;;;;;;;;;;;;14.23;69.32617;100817.1;;;;-68
2023/07/02 04:12:44;;;;;;;;;;;;;;;14.25;69.35156;100820.8;;;;-70
2023/07/02 04:17:44;;;;;;;;;;;;;;;14.29;69.34766;100826;;;;-69
2023/07/02 04:22:44;;;;;;;;;;;;;;;14.32;69.53125;100821.1;;;;-67
2023/07/02 04:27:44;;;;;;;;;;;;;;;14.35;69.5127;100829.7;;;;-67
2023/07/02 04:32:47;;;;;;;;;;;;;;;14.36;69.57129;100826.3;;;;-68
2023/07/02 04:37:10;;;;;;;;;;;;;;;;;;;;;
2023/07/02 04:37:44;;;;;;;;;;;;;;;14.42;69.38965;100839.5;;;;-70
2023/07/02 04:42:46;;;;;;;;;;;;;;;14.48;69.75684;100840.6;;;;-68
2023/07/02 04:47:47;;;;;;;;;;;;;;;14.57;69.51367;100843.3;;;;-69
2023/07/02 04:52:44;;;;;;;;;;;;;;;14.62;69.55566;100847.4;;;;-69
2023/07/02 04:57:45;;;;;;;;;;;;;;;14.65;69.72852;100845;;;;-69
2023/07/02 05:02:44;;;;;;;;;;;;;;;14.72;69.81836;100850.6;;;;-68
2023/07/02 05:07:03;;;;;;;0.2;0;;;;;;;;;;;;;-69
2023/07/02 05:07:44;;;;;;;;;;;;;;;14.79;70.13086;100854.9;;;;-70
2023/07/02 05:12:46;;;;;;;;;;;;;;;14.89;70.14844;100850;;;;-69
2023/07/02 05:17:44;;;;;;;;;;;;;;;14.97;69.8584;100848.5;;;;-68
2023/07/02 05:22:47;;;;;;;;;;;;;;;15.09;70.20215;100855.3;;;;-71
2023/07/02 05:27:44;;;;;;;;;;;;;;;15.34;70.19629;100861.8;;;;-68
2023/07/02 05:32:44;;;;;;;;;;;;;;;15.68;69.65625;100866.2;;;;-68
2023/07/02 05:37:04;;;;;;;0.2;0;;;;;;;;;;;;;-69
2023/07/02 05:37:45;;;;;;;;;;;;;;;16.13;69.11914;100870.7;;;;-68
2023/07/02 05:42:46;;;;;;;;;;;;;;;16.65;67.60156;100867.9;;;;-68
2023/07/02 05:47:44;;;;;;;;;;;;;;;17.14;66.44727;100877.2;;;;-69
2023/07/02 05:52:44;;;;;;;;;;;;;;;17.46;65.21973;100881.6;;;;-69
2023/07/02 05:57:44;;;;;;;;;;;;;;;17.49;64.85059;100878.8;;;;-70
2023/07/02 06:02:48;;;;;;;;;;;;;;;17.52;64.93359;100888.2;;;;-68
2023/07/02 06:07:07;;;;;;;0.2;0.1;;;;;;;;;;;;;-68
2023/07/02 06:07:44;;;;;;;;;;;;;;;17.71;65.00684;100888.6;;;;-67
2023/07/02 06:12:46;;;;;;;;;;;;;;;18.28;63.50684;100902.4;;;;-68
2023/07/02 06:17:44;;;;;;;;;;;;;;;18.58;62.58691;100901;;;;-68
2023/07/02 06:22:44;;;;;;;;;;;;;;;18.93;62.14941;100903.8;;;;-69
2023/07/02 06:27:47;;;;;;;;;;;;;;;19.19;61.26465;100906.7;;;;-68
2023/07/02 06:32:44;;;;;;;;;;;;;;;19.21;61.24512;100910.9;;;;-68
2023/07/02 06:37:09;;;;;;;0.5;0.3;;;;;;;;;;;;;-69
2023/07/02 06:37:44;;;;;;;;;;;;;;;19.31;61.42969;100908;;;;-69
2023/07/02 06:42:44;;;;;;;;;;;;;;;19.57;60.59082;100913.7;;;;-68
2023/07/02 06:47:44;;;;;;;;;;;;;;;19.6;60.39063;100916.1;;;;-67
2023/07/02 06:52:44;;;;;;;;;;;;;;;20.02;59.41309;100924.4;;;;-69
2023/07/02 06:57:49;;;;;;;;;;;;;;;19.98;59.05371;100937.9;;;;-68
2023/07/02 07:02:44;;;;;;;;;;;;;;;20.22;58.8584;100936;;;;-69
2023/07/02 07:07:15;;;;;;;0.7;0.3;;;;;;;;;;;;;-69
2023/07/02 07:07:45;;;;;;;;;;;;;;;20.6;57.88281;100942.5;;;;-68
2023/07/02 07:12:44;;;;;;;;;;;;;;;20.69;57.20996;100945.6;;;;-70
2023/07/02 07:17:44;;;;;;;;;;;;;;;20.96;56.71973;100949.6;;;;-68
2023/07/02 07:22:43;;;;;;;;;;;;;;;21.3;55.69043;100961.9;;;;-68
2023/07/02 07:27:46;;;;;;;;;;;;;;;21.33;55.25879;100962.8;;;;-68
2023/07/02 07:32:44;;;;;;;;;;;;;;;21.56;55.05859;100967.9;;;;-69
2023/07/02 07:37:15;;;;;;;0.2;0;;;;;;;;;;;;;-68
2023/07/02 07:37:46;;;;;;;;;;;;;;;21.66;54.63672;100974.9;;;;-69
2023/07/02 07:42:46;;;;;;;;;;;;;;;21.5;54.58398;100987.7;;;;-69
2023/07/02 07:47:44;;;;;;;;;;;;;;;21.29;55.4375;100979.5;;;;-68
2023/07/02 07:52:46;;;;;;;;;;;;;;;21.54;55.28516;100984.9;;;;-68
2023/07/02 07:57:44;;;;;;;;;;;;;;;21.64;54.17676;100985.2;;;;-70
2023/07/02 08:02:44;;;;;;;;;;;;;;;21.53;54.9873;100993.8;;;;-68
2023/07/02 08:07:18;;;;;;;0.2;0;;;;;;;;;;;;;-70
2023/07/02 08:07:44;;;;;;;;;;;;;;;21.54;55.23926;100989.3;;;;-68
2023/07/02 08:12:45;;;;;;;;;;;;;;;21.72;54.00391;100990.8;;;;-69
2023/07/02 08:17:44;;;;;;;;;;;;;;;22.03;53.35449;100993.5;;;;-69
2023/07/02 08:22:44;;;;;;;;;;;;;;;22.01;52.96387;100994.6;;;;-70
2023/07/02 08:27:43;;;;;;;;;;;;;;;22.01;52.80273;101004.4;;;;-69
2023/07/02 08:32:44;;;;;;;;;;;;;;;22.19;53.21387;101003.3;;;;-69
2023/07/02 08:37:22;;;;;;;0.5;0.1;;;;;;;;;;;;;-69
2023/07/02 08:37:44;;;;;;;;;;;;;;;22.29;52.75586;101006.7;;;;-70
2023/07/02 08:42:44;;;;;;;;;;;;;;;22.18;52.30664;101011.2;;;;-68
2023/07/02 08:47:44;;;;;;;;;;;;;;;22.2;51.97754;101025.1;;;;-70
2023/07/02 08:52:45;;;;;;;;;;;;;;;21.97;52.50098;101028.7;;;;-71
2023/07/02 08:57:43;;;;;;;;;;;;;;;21.62;52.85938;101033.4;;;;-70
2023/07/02 09:02:44;;;;;;;;;;;;;;;21.57;53.36816;101034;;;;-69
2023/07/02 09:07:25;;;;;;;0.2;0.1;;;;;;;;;;;;;-69
2023/07/02 09:07:52;;;;;;;;;;;;;;;21.81;53.05371;101038.9;;;;-69
2023/07/02 09:12:44;;;;;;;;;;;;;;;22.04;52.88574;101035.9;;;;-69
2023/07/02 09:17:44;;;;;;;;;;;;;;;22.09;52.63965;101041;;;;-69
2023/07/02 09:22:44;;;;;;;;;;;;;;;22.24;51.60352;101042.2;;;;-68
2023/07/02 09:27:44;;;;;;;;;;;;;;;22.55;50.81348;101046.9;;;;-68
2023/07/02 09:32:44;;;;;;;;;;;;;;;22.67;50.71191;101047.4;;;;-69
2023/07/02 09:37:29;;;;;;;0.2;0;;;;;;;;;;;;;-69
2023/07/02 09:37:49;;;;;;;;;;;;;;;22.58;50.70215;101049.8;;;;-69
2023/07/02 09:42:46;;;;;;;;;;;;;;;22.24;51.04199;101056;;;;-69
2023/07/02 09:47:47;;;;;;;;;;;;;;;22.25;50.98535;101055;;;;-69
2023/07/02 09:52:45;;;;;;;;;;;;;;;22.17;51.05664;101057.5;;;;-69
2023/07/02 09:57:44;;;;;;;;;;;;;;;22.24;50.92773;101051.9;;;;-69
2023/07/02 10:02:51;;;;;;;;;;;;;;;22.36;51.39941;101065.9;;;;-69
2023/07/02 10:07:36;;;;;;;0.2;0;;;;;;;;;;;;;-68
2023/07/02 10:07:47;;;;;;;;;;;;;;;22.91;50.55664;101061.6;;;;-70
2023/07/02 10:12:49;;;;;;;;;;;;;;;23.28;49.54102;101065;;;;-68
2023/07/02 10:17:44;;;;;;;;;;;;;;;23.67;48.8125;101071.6;;;;-70
2023/07/02 10:22:52;;;;;;;;;;;;;;;23.88;48.00586;101073;;;;-69
2023/07/02 10:27:46;;;;;;;;;;;;;;;23.76;47.9707;101080.3;;;;-71
2023/07/02 10:32:44;;;;;;;;;;;;;;;23.49;48.27637;101082.6;;;;-68
2023/07/02 10:37:42;;;;;;;0.2;0;;;;;;;;;;;;;-70
2023/07/02 10:37:52;;;;;;;;;;;;;;;23.43;48.38477;101083;;;;-69
2023/07/02 10:42:53;;;;;;;;;;;;;;;23.66;49.00684;101084.7;;;;-68
2023/07/02 10:47:46;;;;;;;;;;;;;;;23.89;48.04199;101090;;;;-69
2023/07/02 10:52:46;;;;;;;;;;;;;;;24.08;47.9707;101092.5;;;;-70
2023/07/02 10:57:44;;;;;;;;;;;;;;;24.2;47.64844;101096;;;;-68
2023/07/02 11:02:44;;;;;;;;;;;;;;;24.49;49.00586;101091.5;;;;-68
2023/07/02 11:07:40;;;;;;;0.3;0.1;;;;;;;;;;;;;-69
2023/07/02 11:07:56;;;;;;;;;;;;;;;24.48;47.84082;101085.5;;;;-72
2023/07/02 11:12:44;;;;;;;;;;;;;;;24.66;47.91699;101092.9;;;;-69
2023/07/02 11:17:44;;;;;;;;;;;;;;;24.75;47.90332;101099.4;;;;-68
2023/07/02 11:22:47;;;;;;;;;;;;;;;24.79;46.53516;101105.1;;;;-70
2023/07/02 11:27:44;;;;;;;;;;;;;;;24.75;49.06836;101104.4;;;;-70
2023/07/02 11:32:55;;;;;;;;;;;;;;;24.84;47.06934;101092.2;;;;-69
2023/07/02 11:37:44;;;;;;;;;;;;;;;24.95;47.84375;101109.2;;;;-69
2023/07/02 11:37:54;;;;;;;0.2;0;;;;;;;;;;;;;-69
2023/07/02 11:42:48;;;;;;;;;;;;;;;25.19;48.00781;101113.9;;;;-69
2023/07/02 11:47:48;;;;;;;;;;;;;;;25.46;47.75879;101107.7;;;;-68
2023/07/02 11:52:46;;;;;;;;;;;;;;;25.49;46.84863;101108.8;;;;-68
2023/07/02 11:57:46;;;;;;;;;;;;;;;25.4;47.44141;101109.6;;;;-69
2023/07/02 12:02:44;;;;;;;;;;;;;;;25.59;47.13867;101111.7;;;;-68
2023/07/02 12:07:44;;;;;;;;;;;;;;;25.69;45.08887;101114.3;;;;-69
2023/07/02 12:07:55;;;;;;;0.2;0;;;;;;;;;;;;;-69
2023/07/02 12:12:45;;;;;;;;;;;;;;;25.66;46.19629;101118.5;;;;-70
2023/07/02 12:17:43;;;;;;;;;;;;;;;25.64;45.95117;101124.3;;;;-69
2023/07/02 12:22:44;;;;;;;;;;;;;;;25.61;45.15039;101133;;;;-68
2023/07/02 12:27:44;;;;;;;;;;;;;;;25.37;44.08496;101133.3;;;;-69
2023/07/02 12:32:50;;;;;;;;;;;;;;;25.1;45.50391;101134.5;;;;-73
2023/07/02 12:37:46;;;;;;;;;;;;;;;24.9;44.8252;101138;;;;-68
2023/07/02 12:37:56;;;;;;;0.2;0;;;;;;;;;;;;;-68
2023/07/02 12:42:53;;;;;;;;;;;;;;;25;44.77734;101140.6;;;;-69
2023/07/02 12:47:44;;;;;;;;;;;;;;;25.05;45.62598;101159.9;;;;-69
2023/07/02 12:52:44;;;;;;;;;;;;;;;25.24;44.73145;101153.8;;;;-69
2023/07/02 12:57:44;;;;;;;;;;;;;;;25.15;45.15039;101154.1;;;;-68
2023/07/02 13:02:45;;;;;;;;;;;;;;;25.24;45.01953;101157.1;;;;-70
2023/07/02 13:07:44;;;;;;;;;;;;;;;25.22;43.42285;101155.9;;;;-67
2023/07/02 13:07:56;;;;;;;0.2;0;;;;;;;;;;;;;-71
2023/07/02 13:12:43;;;;;;;;;;;;;;;24.86;44.61328;101165.2;;;;-69
2023/07/02 13:17:45;;;;;;;;;;;;;;;24.9;43.90137;101153;;;;-68
2023/07/02 13:22:44;;;;;;;;;;;;;;;25.05;44.79297;101163.7;;;;-70
2023/07/02 13:27:44;;;;;;;;;;;;;;;25.3;45.23438;101176.6;;;;-71
2023/07/02 13:32:44;;;;;;;;;;;;;;;25.14;41.86426;101171.9;;;;-69
2023/07/02 13:37:46;;;;;;;;;;;;;;;25.51;43.23145;101160.4;;;;-70
2023/07/02 13:38:04;;;;;;;0.2;0;;;;;;;;;;;;;-69
2023/07/02 13:42:45;;;;;;;;;;;;;;;25.79;42.91016;101177.7;;;;-69
2023/07/02 13:47:45;;;;;;;;;;;;;;;25.91;42.75977;101170.4;;;;-69
2023/07/02 13:52:49;;;;;;;;;;;;;;;25.51;43.27734;101167.1;;;;-70
2023/07/02 13:57:44;;;;;;;;;;;;;;;25.55;43.0957;101165.1;;;;-69
2023/07/02 14:02:43;;;;;;;;;;;;;;;25.74;42.31543;101177.7;;;;-70
2023/07/02 14:07:44;;;;;;;;;;;;;;;25.87;41.80566;101166.4;;;;-69
2023/07/02 14:08:05;;;;;;;0.2;0;;;;;;;;;;;;;-69
2023/07/02 14:12:44;;;;;;;;;;;;;;;26.1;41.88477;101160.2;;;;-69
2023/07/02 14:17:44;;;;;;;;;;;;;;;26.19;39.73633;101154.1;;;;-70
2023/07/02 14:22:44;;;;;;;;;;;;;;;26.25;41.01758;101158.8;;;;-68
2023/07/02 14:27:44;;;;;;;;;;;;;;;26.09;42.08105;101158.8;;;;-69
2023/07/02 14:32:47;;;;;;;;;;;;;;;26.27;42.04004;101156.5;;;;-70
2023/07/02 14:37:44;;;;;;;;;;;;;;;26.2;41.73145;101162.3;;;;-70
2023/07/02 14:38:10;;;;;;;0.3;0.1;;;;;;;;;;;;;-70
2023/07/02 14:42:46;;;;;;;;;;;;;;;26.1;41.94336;101161.6;;;;-74
2023/07/02 14:47:46;;;;;;;;;;;;;;;25.81;38.69336;101158.8;;;;-68
2023/07/02 14:52:44;;;;;;;;;;;;;;;25.87;42.01465;101154.4;;;;-69
2023/07/02 14:57:46;;;;;;;;;;;;;;;25.91;41.42676;101154.4;;;;-68
2023/07/02 15:02:46;;;;;;;;;;;;;;;25.78;41.0791;101157.2;;;;-69
2023/07/02 15:07:44;;;;;;;;;;;;;;;25.53;41.04395;101155.1;;;;-69
2023/07/02 15:08:16;;;;;;;0.2;0;;;;;;;;;;;;;-69
2023/07/02 15:12:43;;;;;;;;;;;;;;;25.39;41.49414;101154.2;;;;-68
2023/07/02 15:17:44;;;;;;;;;;;;;;;25.17;40.83789;101150.7;;;;-69
2023/07/02 15:22:46;;;;;;;;;;;;;;;25.1;41.17969;101145;;;;-68
2023/07/02 15:27:43;;;;;;;;;;;;;;;24.98;40.7627;101147.6;;;;-70
2023/07/02 15:32:43;;;;;;;;;;;;;;;24.88;39.73633;101145;;;;-70
2023/07/02 15:37:45;;;;;;;;;;;;;;;24.54;40.46875;101140.6;;;;-72
2023/07/02 15:38:23;;;;;;;0.2;0.1;;;;;;;;;;;;;-70
2023/07/02 15:42:44;;;;;;;;;;;;;;;24.65;40.57031;101137.9;;;;-68
2023/07/02 15:47:44;;;;;;;;;;;;;;;24.6;40.37012;101136.9;;;;-68
2023/07/02 15:52:44;;;;;;;;;;;;;;;24.52;40.63965;101147.4;;;;-67
2023/07/02 15:57:44;;;;;;;;;;;;;;;24.46;40.94727;101143.2;;;;-68
2023/07/02 16:02:44;;;;;;;;;;;;;;;24.42;40.9541;101144.1;;;;-67
2023/07/02 16:07:44;;;;;;;;;;;;;;;24.07;40.7959;101136.8;;;;-68
2023/07/02 16:08:22;;;;;;;0.3;0.1;;;;;;;;;;;;;-69
2023/07/02 16:12:44;;;;;;;;;;;;;;;23.97;41.94141;101140.4;;;;-71
2023/07/02 16:17:44;;;;;;;;;;;;;;;23.85;41.49023;101143.3;;;;-70
2023/07/02 16:22:47;;;;;;;;;;;;;;;23.6;41.5957;101132.2;;;;-68
2023/07/02 16:27:46;;;;;;;;;;;;;;;23.48;42.27539;101133;;;;-69
2023/07/02 16:32:44;;;;;;;;;;;;;;;23.42;42.32813;101128.9;;;;-69
2023/07/02 16:37:44;;;;;;;;;;;;;;;23.33;42.42285;101128.9;;;;-69
2023/07/02 16:38:25;;;;;;;0.3;0.1;;;;;;;;;;;;;-68
2023/07/02 16:42:48;;;;;;;;;;;;;;;23.11;42.53906;101120.6;;;;-69
2023/07/02 16:47:44;;;;;;;;;;;;;;;23.08;43.04395;101124.4;;;;-69
2023/07/02 16:52:43;;;;;;;;;;;;;;;22.97;42.65332;101115.9;;;;-68
2023/07/02 16:57:44;;;;;;;;;;;;;;;22.77;42.94434;101114;;;;-68
2023/07/02 17:02:48;;;;;;;;;;;;;;;22.73;42.97559;101105.9;;;;-69
2023/07/02 17:07:44;;;;;;;;;;;;;;;22.55;43.51074;101111.5;;;;-69
2023/07/02 17:08:40;;;;;;;0.4;0.2;;;;;;;;;;;;;-70
2023/07/02 17:12:43;;;;;;;;;;;;;;;22.21;43.93652;101101.7;;;;-69
2023/07/02 17:17:44;;;;;;;;;;;;;;;21.97;44.29199;101101.4;;;;-69
2023/07/02 17:22:49;;;;;;;;;;;;;;;22.11;44.15625;101093.6;;;;-68
2023/07/02 17:27:45;;;;;;;;;;;;;;;21.9;44.49023;101082.5;;;;-70
2023/07/02 17:32:44;;;;;;;;;;;;;;;21.77;45.01758;101090.3;;;;-68
2023/07/02 17:37:44;;;;;;;;;;;;;;;21.74;44.93359;101084.9;;;;-69
2023/07/02 17:38:33;;;;;;;0.2;0;;;;;;;;;;;;;-68
2023/07/02 17:42:43;;;;;;;;;;;;;;;21.57;45.24902;101076.7;;;;-69
2023/07/02 17:47:44;;;;;;;;;;;;;;;21.58;45.00977;101073.2;;;;-71
2023/07/02 17:52:44;;;;;;;;;;;;;;;21.27;45.84863;101072.7;;;;-69
2023/07/02 17:57:44;;;;;;;;;;;;;;;21.28;45.81543;101070.9;;;;-68
2023/07/02 18:02:46;;;;;;;;;;;;;;;21.19;46.02344;101068.4;;;;-68
2023/07/02 18:07:45;;;;;;;;;;;;;;;21.02;46.44141;101062.1;;;;-71
2023/07/02 18:08:36;;;;;;;0.3;0.2;;;;;;;;;;;;;-69
2023/07/02 18:12:44;;;;;;;;;;;;;;;21;46.51953;101055.4;;;;-68
2023/07/02 18:17:44;;;;;;;;;;;;;;;20.88;46.5293;101054.3;;;;-71
2023/07/02 18:22:44;;;;;;;;;;;;;;;20.84;46.20508;101061.5;;;;-68
2023/07/02 18:27:44;;;;;;;;;;;;;;;20.74;46.25293;101065.1;;;;-70
2023/07/02 18:32:49;;;;;;;;;;;;;;;20.64;46.83691;101056;;;;-71
2023/07/02 18:37:43;;;;;;;;;;;;;;;20.54;47.16992;101052.7;;;;-68
2023/07/02 18:38:44;;;;;;;0.2;0.1;;;;;;;;;;;;;-69
2023/07/02 18:42:43;;;;;;;;;;;;;;;20.36;47.9375;101055.3;;;;-69
2023/07/02 18:47:47;;;;;;;;;;;;;;;20.31;47.39746;101052.8;;;;-69
2023/07/02 18:52:44;;;;;;;;;;;;;;;20.25;47.21777;101052.5;;;;-67
2023/07/02 18:57:44;;;;;;;;;;;;;;;20.16;47.12891;101053.7;;;;-69
2023/07/02 19:02:44;;;;;;;;;;;;;;;20.03;47.5957;101042.7;;;;-68
2023/07/02 19:07:44;;;;;;;;;;;;;;;19.96;48.1582;101039.5;;;;-68
2023/07/02 19:08:43;;;;;;;0.2;0;;;;;;;;;;;;;-69
2023/07/02 19:12:45;;;;;;;;;;;;;;;19.88;48.10352;101039.5;;;;-68
2023/07/02 19:17:44;;;;;;;;;;;;;;;19.79;48.97168;101039.1;;;;-69
2023/07/02 19:22:43;;;;;;;;;;;;;;;19.69;48.9043;101042;;;;-68
2023/07/02 19:27:45;;;;;;;;;;;;;;;19.6;49.4873;101035.3;;;;-69
2023/07/02 19:32:44;;;;;;;;;;;;;;;19.53;49.74121;101037.5;;;;-69
2023/07/02 19:37:43;;;;;;;;;;;;;;;19.44;50.16504;101037.5;;;;-67
2023/07/02 19:38:45;;;;;;;0.3;0.2;;;;;;;;;;;;;-69
2023/07/02 19:42:44;;;;;;;;;;;;;;;19.36;51.12305;101043.5;;;;-69
2023/07/02 19:47:47;;;;;;;;;;;;;;;19.29;51.10449;101037.9;;;;-70
2023/07/02 19:52:44;;;;;;;;;;;;;;;19.22;51.41504;101035.3;;;;-68
2023/07/02 19:57:44;;;;;;;;;;;;;;;19.16;51.6123;101044.1;;;;-68
2023/07/02 20:02:44;;;;;;;;;;;;;;;19.09;51.85449;101039.5;;;;-67
2023/07/02 20:07:43;;;;;;;;;;;;;;;19.02;52.66699;101033.8;;;;-70
2023/07/02 20:08:48;;;;;;;0.3;0.1;;;;;;;;;;;;;-69
2023/07/02 20:12:43;;;;;;;;;;;;;;;18.95;52.10059;101034.8;;;;-67
2023/07/02 20:17:44;;;;;;;;;;;;;;;18.88;53.34277;101033.7;;;;-68
2023/07/02 20:22:47;;;;;;;;;;;;;;;18.84;53.31543;101040.3;;;;-69
2023/07/02 20:27:44;;;;;;;;;;;;;;;18.79;53.55957;101039.1;;;;-69
2023/07/02 20:32:43;;;;;;;;;;;;;;;18.72;54.16504;101039.1;;;;-70
2023/07/02 20:37:49;;;;;;;;;;;;;;;18.68;54.09082;101041.3;;;;-68
2023/07/02 20:38:51;;;;;;;0.4;0.2;;;;;;;;;;;;;-68
2023/07/02 20:42:44;;;;;;;;;;;;;;;18.62;54.42578;101040.5;;;;-69
2023/07/02 20:47:44;;;;;;;;;;;;;;;18.58;55.02148;101037.7;;;;-69
2023/07/02 20:52:44;;;;;;;;;;;;;;;18.54;55.25488;101041.3;;;;-67
2023/07/02 20:57:44;;;;;;;;;;;;;;;18.51;55.53613;101038;;;;-69
2023/07/02 21:02:44;;;;;;;;;;;;;;;18.47;55.63086;101040.8;;;;-68
2023/07/02 21:07:44;;;;;;;;;;;;;;;18.42;55.80859;101041.4;;;;-68
2023/07/02 21:08:54;;;;;;;0.2;0;;;;;;;;;;;;;-68
2023/07/02 21:12:48;;;;;;;;;;;;;;;18.38;55.96191;101034.7;;;;-68
2023/07/02 21:17:43;;;;;;;;;;;;;;;18.34;56.16113;101036.3;;;;-68
2023/07/02 21:22:46;;;;;;;;;;;;;;;18.28;57.18555;101036.8;;;;-69
2023/07/02 21:27:46;;;;;;;;;;;;;;;18.27;56.68457;101026.7;;;;-67
2023/07/02 21:32:43;;;;;;;;;;;;;;;18.23;57.00781;101024.2;;;;-67
2023/07/02 21:37:46;;;;;;;;;;;;;;;18.21;56.9375;101025.1;;;;-68
2023/07/02 21:38:56;;;;;;;0.3;0.1;;;;;;;;;;;;;-67
2023/07/02 21:42:43;;;;;;;;;;;;;;;18.17;57.1709;101020.4;;;;-68
2023/07/02 21:47:44;;;;;;;;;;;;;;;18.14;57.45117;101021.3;;;;-68
2023/07/02 21:52:44;;;;;;;;;;;;;;;18.12;57.60742;101018.6;;;;-69
2023/07/02 21:57:43;;;;;;;;;;;;;;;18.08;58.03223;101020.2;;;;-68
2023/07/02 22:02:45;;;;;;;;;;;;;;;18.03;58.34277;101017.8;;;;-69
2023/07/02 22:07:43;;;;;;;;;;;;;;;18;58.32813;101012.7;;;;-68
2023/07/02 22:09:03;;;;;;;0.2;0.1;;;;;;;;;;;;;-68
2023/07/02 22:12:44;;;;;;;;;;;;;;;17.96;58.23047;101006.5;;;;-68
2023/07/02 22:17:43;;;;;;;;;;;;;;;17.91;58.68848;101004.6;;;;-72
2023/07/02 22:22:44;;;;;;;;;;;;;;;17.88;58.48145;100999;;;;-69
2023/07/02 22:27:44;;;;;;;;;;;;;;;17.85;58.27246;100998.4;;;;-69
2023/07/02 22:32:44;;;;;;;;;;;;;;;17.81;58.47168;100993.4;;;;-68
2023/07/02 22:37:44;;;;;;;;;;;;;;;17.77;58.79492;100988.7;;;;-69
2023/07/02 22:39:02;;;;;;;0.2;0;;;;;;;;;;;;;-68
2023/07/02 22:42:44;;;;;;;;;;;;;;;17.76;59.13379;100977.8;;;;-68
2023/07/02 22:47:48;;;;;;;;;;;;;;;17.71;58.63965;100983.8;;;;-69
2023/07/02 22:52:44;;;;;;;;;;;;;;;17.69;58.69434;100977.6;;;;-68
2023/07/02 22:57:46;;;;;;;;;;;;;;;17.65;59.15332;100972.9;;;;-68
2023/07/02 23:02:44;;;;;;;;;;;;;;;17.65;59.13086;100975.5;;;;-68
2023/07/02 23:07:44;;;;;;;;;;;;;;;17.6;59.10156;100967.2;;;;-68
2023/07/02 23:09:04;;;;;;;0.2;0.1;;;;;;;;;;;;;-68
2023/07/02 23:12:45;;;;;;;;;;;;;;;17.58;59.73145;100967;;;;-69
2023/07/02 23:17:43;;;;;;;;;;;;;;;17.56;59.2998;100961.7;;;;-69
2023/07/02 23:22:47;;;;;;;;;;;;;;;17.54;60.12305;100958.8;;;;-68
2023/07/02 23:27:46;;;;;;;;;;;;;;;17.52;60.33398;100958.3;;;;-68
2023/07/02 23:32:44;;;;;;;;;;;;;;;17.53;60.82227;100954.6;;;;-69
2023/07/02 23:37:45;;;;;;;;;;;;;;;17.51;60.65039;100948.9;;;;-70
2023/07/02 23:39:07;;;;;;;0.2;0.1;;;;;;;;;;;;;-70
2023/07/02 23:42:43;;;;;;;;;;;;;;;17.5;61.50781;100944.1;;;;-68
2023/07/02 23:47:44;;;;;;;;;;;;;;;17.5;61.64258;100939.4;;;;-69
2023/07/02 23:52:45;;;;;;;;;;;;;;;17.49;61.86816;100934.9;;;;-68
2023/07/02 23:57:43;;;;;;;;;;;;;;;17.49;61.7207;100928;;;;-69
